< < Back
Terminal Aerodrome Forecast


Current Version              Previous Versions:   1  2  3  4  5  6  7  8  9  

Terminal Aerodrome Forecast

670
FTUS44 KOHX 192000 AAA
TAFCSV
TAF AMD
KCSV 192039Z 1921/2018 26008KT P6SM SCT030 SCT050
     FM200500 00000KT 5SM BR SKC
      TEMPO 2008/2012 2SM BR SCT007
     FM201300 26003KT P6SM SCT015=



Latest METAR

028
SAUS70 KWBC 200500 RRK
MTRCSV
METAR KCSV 200453Z AUTO 00000KT 8SM CLR 22/19 A3001 RMK AO2 SLP140
T02220194


USA.gov is the U.S. government's official web portal to all federal, state and local government web resources and services.